Wells, AK

4:57 PM AKST on February 19, 2017 (GMT -0900)
MHHWA2 | | Change Station

Elev 160 ft 59.42 °N, 135.93 °W | Updated 5 hours ago

Clear
Clear
17.0 °F
Feels Like 17.0 °F
N
0.0
Wind Variable Wind from WNW
Gusts 0.0 mph

Today
High -- | Low -- °F
--% Chance of Precip.
Yesterday
High -- | Low -- °F
Precip. -- in
Pressure 29.63 in
Visibility 10.0 miles
Clouds Clear
Dew Point 15.0 °F
Humidity 91%
Rainfall in
Snow Depth Not available.
7:27 AM 5:08 PM
Last Quarter, 38% visible
METAR PAHN 200154Z AUTO 32009KT 10SM CLR 00/M09 A2962 RMK AO2 SLP033 T00001094 TSNO
Pressure 29.63 in
Visibility 10.0 miles
Clouds Clear
Dew Point 15.0 °F
Humidity 91%
Rainfall in
Snow Depth Not available.
7:27 AM 5:08 PM
Last Quarter, 38% visible
METAR PAHN 200154Z AUTO 32009KT 10SM CLR 00/M09 A2962 RMK AO2 SLP033 T00001094 TSNO

Get Your Daily Forecast Email!

Thanks for signing up!

Be on the lookout for a verification email in your inbox.

You'll start receiving the daily forecast at 8 AM.

×

10-Day Weather Forecast

Almanac

Astronomy

Feb. 19, 2017 Rise Set
Actual Time
Civil Twilight
Nautical Twilight
Astronomical Twilight
Moon
Length of Visible Light
Length of Day
Tomorrow will be .
, % of the Moon is Illuminated

Today's Extremes

State Highs State Lows

Community

WunderPhotos

Upload Photos

1,962,540 photos uploaded!

WunderBlog® & News

Nearby

Air Quality

  Air Quality AQ Index Pollutant
Not available.

Snow Depth

Station Depth Elevation

Earthquake Activity

City Distance Mag. Time & Date
Minimum magnitude displayed is 2.5.

Coastal Water Temperatures

Place Temperature

Stations

Nearby Weather Stations

Station Location Temp. Windchill Dew Point Humidity Wind Precip. Elev Updated Type
                   

Watches & Warnings

There are currently no watches in effect.